Time;durP1;ratioP1;P1;durP2;ratioP2;P2;SDS_P1;SDS_P2;PMS_P1;PMS_P2;Temp;Humidity;BMP_temperature;BMP_pressure;BME280_temperature;BME280_humidity;BME280_pressure;Samples;Min_cycle;Max_cycle;Signal;HPM_P1;HPM_P2
2023/04/15 00:02:36;;;;;;;11.02;8.50;;;11.80;99.90;;;;;;5025248;28;20228;-79
2023/04/15 00:05:25;;;;;;;11.80;8.55;;;11.80;99.90;;;;;;5042117;28;20305;-75
2023/04/15 00:08:14;;;;;;;10.32;8.60;;;11.70;99.90;;;;;;5032205;28;20346;-77
2023/04/15 00:11:04;;;;;;;10.60;8.50;;;11.80;99.90;;;;;;5024699;28;20314;-77
2023/04/15 00:13:53;;;;;;;11.05;9.00;;;11.70;99.90;;;;;;5031883;28;20644;-79
2023/04/15 00:16:43;;;;;;;10.35;8.50;;;11.60;99.90;;;;;;5037136;28;20309;-79
2023/04/15 00:19:33;;;;;;;11.25;8.65;;;11.60;99.90;;;;;;5053171;28;20749;-76
2023/04/15 00:22:22;;;;;;;10.55;8.98;;;11.70;99.90;;;;;;5036778;28;20312;-75
2023/04/15 00:25:11;;;;;;;12.07;9.05;;;11.70;99.90;;;;;;5033180;28;20368;-77
2023/04/15 00:28:00;;;;;;;10.50;9.00;;;11.60;99.90;;;;;;5038980;28;20233;-74
2023/04/15 00:30:50;;;;;;;11.20;8.88;;;11.50;99.90;;;;;;5035715;28;20284;-73
2023/04/15 00:33:38;;;;;;;12.18;9.23;;;11.50;99.90;;;;;;5017283;28;20233;-73
2023/04/15 00:36:29;;;;;;;13.05;9.70;;;11.60;99.90;;;;;;5039419;28;20229;-76
2023/04/15 00:39:18;;;;;;;11.05;8.88;;;11.70;99.90;;;;;;5035152;28;20944;-76
2023/04/15 00:42:09;;;;;;;10.13;8.45;;;11.60;99.90;;;;;;5032174;28;20231;-75
2023/04/15 00:44:58;;;;;;;10.55;9.10;;;11.60;99.90;;;;;;5029526;28;20255;-76
2023/04/15 00:47:47;;;;;;;12.05;9.05;;;11.60;99.90;;;;;;5032777;28;20230;-76
2023/04/15 00:50:35;;;;;;;11.20;9.10;;;11.60;99.90;;;;;;5023349;28;20228;-77
2023/04/15 00:53:26;;;;;;;12.20;9.95;;;11.40;99.90;;;;;;5036956;28;20218;-77
2023/04/15 00:56:15;;;;;;;10.98;8.95;;;11.50;99.90;;;;;;5033615;28;20262;-78
2023/04/15 00:59:05;;;;;;;11.43;8.90;;;11.30;99.90;;;;;;5026178;28;20236;-77
2023/04/15 01:01:54;;;;;;;10.50;9.32;;;11.50;99.90;;;;;;5040867;28;20221;-77
2023/04/15 01:04:43;;;;;;;10.18;8.93;;;11.50;99.90;;;;;;5032904;28;20229;-77
2023/04/15 01:07:32;;;;;;;10.10;8.82;;;11.50;99.90;;;;;;5033616;28;20227;-77
2023/04/15 01:10:24;;;;;;;13.60;9.70;;;11.40;99.90;;;;;;5035442;28;20209;-78
2023/04/15 01:13:12;;;;;;;13.18;10.25;;;11.20;99.90;;;;;;5034182;28;20221;-78
2023/04/15 01:16:02;;;;;;;11.30;9.70;;;11.20;99.90;;;;;;5035076;28;20781;-78
2023/04/15 01:18:52;;;;;;;12.77;9.77;;;11.20;99.90;;;;;;5036301;28;20232;-78
2023/04/15 01:21:44;;;;;;;13.32;9.75;;;11.10;99.90;;;;;;5034934;28;20596;-77
2023/04/15 01:24:33;;;;;;;12.90;10.02;;;11.10;99.90;;;;;;5046204;28;20219;-80
2023/04/15 01:27:23;;;;;;;12.27;10.15;;;11.00;99.90;;;;;;5016786;28;20221;-77
2023/04/15 01:30:12;;;;;;;12.88;10.38;;;11.00;99.90;;;;;;5034845;28;20233;-79
2023/04/15 01:33:01;;;;;;;11.95;9.48;;;11.00;99.90;;;;;;5035708;28;20221;-80
2023/04/15 01:35:50;;;;;;;12.05;9.80;;;11.00;99.90;;;;;;5039938;28;20671;-77
2023/04/15 01:38:40;;;;;;;11.48;10.25;;;11.10;99.90;;;;;;5032216;28;20259;-79
2023/04/15 01:41:31;;;;;;;12.05;10.32;;;11.10;99.90;;;;;;5021634;28;20783;-81
2023/04/15 01:44:21;;;;;;;12.00;10.38;;;11.00;99.90;;;;;;5018549;28;20549;-76
2023/04/15 01:47:11;;;;;;;12.27;10.45;;;11.10;99.90;;;;;;5003200;28;20224;-77
2023/04/15 01:50:00;;;;;;;14.73;10.88;;;11.00;99.90;;;;;;5034454;28;20233;-76
2023/04/15 01:52:49;;;;;;;12.60;10.43;;;10.70;99.90;;;;;;5032745;28;20358;-76
2023/04/15 01:55:40;;;;;;;13.27;10.73;;;10.80;99.90;;;;;;5016412;28;20229;-76
2023/04/15 01:58:31;;;;;;;14.10;10.68;;;10.80;99.90;;;;;;5031213;28;20612;-76
2023/04/15 02:01:22;;;;;;;12.48;11.05;;;10.90;99.90;;;;;;5013340;28;20743;-75
2023/04/15 02:04:15;;;;;;;14.32;11.18;;;11.00;99.90;;;;;;5033349;28;20225;-75
2023/04/15 02:07:04;;;;;;;14.40;11.52;;;11.00;99.90;;;;;;5036535;28;20225;-75
2023/04/15 02:09:53;;;;;;;12.23;10.88;;;10.90;99.90;;;;;;5032032;28;20240;-76
2023/04/15 02:12:44;;;;;;;13.60;10.95;;;11.00;99.90;;;;;;5030361;28;20237;-77
2023/04/15 02:15:33;;;;;;;12.93;11.52;;;10.70;99.90;;;;;;5025219;28;20287;-80
2023/04/15 02:18:23;;;;;;;12.98;11.50;;;10.60;99.90;;;;;;5032990;28;20233;-82
2023/04/15 02:21:12;;;;;;;14.07;11.32;;;10.80;99.90;;;;;;5037960;28;20713;-81
2023/04/15 02:24:01;;;;;;;15.48;11.90;;;10.90;99.90;;;;;;5017398;28;20232;-80
2023/04/15 02:26:50;;;;;;;15.43;12.40;;;10.90;99.90;;;;;;5030142;28;20320;-81
2023/04/15 02:29:44;;;;;;;15.10;12.45;;;10.80;99.90;;;;;;5027728;28;20248;-80
2023/04/15 02:32:32;;;;;;;13.65;11.52;;;10.80;99.90;;;;;;5041480;28;20286;-80
2023/04/15 02:35:24;;;;;;;15.77;11.98;;;10.90;99.90;;;;;;5034506;28;20224;-79
2023/04/15 02:38:15;;;;;;;15.23;11.77;;;10.90;99.90;;;;;;5034175;28;20306;-80
2023/04/15 02:41:04;;;;;;;13.85;11.68;;;10.90;99.90;;;;;;5022949;28;20218;-80
2023/04/15 02:43:54;;;;;;;13.05;11.20;;;11.10;99.90;;;;;;5017396;28;20308;-81
2023/04/15 02:46:45;;;;;;;15.02;11.57;;;11.10;99.90;;;;;;5039079;28;20223;-81
2023/04/15 02:49:34;;;;;;;14.32;11.80;;;11.10;99.90;;;;;;5033538;28;20232;-81
2023/04/15 02:52:24;;;;;;;13.27;11.82;;;10.90;99.90;;;;;;5038443;28;20846;-83
2023/04/15 02:55:13;;;;;;;15.70;11.68;;;10.90;99.90;;;;;;5036601;28;20744;-80
2023/04/15 02:58:02;;;;;;;15.25;11.48;;;10.90;99.90;;;;;;5014430;28;20218;-78
2023/04/15 03:04:55;;;;;;;13.38;11.82;;;10.70;99.90;;;;;;5032987;28;20263;-78
2023/04/15 03:07:45;;;;;;;14.48;11.95;;;11.00;99.90;;;;;;5032057;28;20699;-78
2023/04/15 03:10:35;;;;;;;17.30;12.25;;;11.10;99.90;;;;;;5037746;28;20237;-78
2023/04/15 03:13:23;;;;;;;16.27;11.77;;;10.80;99.90;;;;;;5040357;28;20302;-78
2023/04/15 03:16:14;;;;;;;15.70;12.25;;;10.90;99.90;;;;;;5023124;28;20253;-79
2023/04/15 03:19:03;;;;;;;14.05;11.60;;;10.90;99.90;;;;;;5035489;28;20236;-80
2023/04/15 03:21:53;;;;;;;16.45;11.93;;;10.90;99.90;;;;;;5009198;28;20324;-80
2023/04/15 03:24:44;;;;;;;14.38;11.38;;;11.10;99.90;;;;;;5011846;28;20961;-81
2023/04/15 03:27:33;;;;;;;16.25;12.32;;;10.90;99.90;;;;;;5026040;28;20218;-80
2023/04/15 03:30:24;;;;;;;14.40;12.07;;;10.80;99.90;;;;;;5035439;28;20232;-78
2023/04/15 03:33:13;;;;;;;14.73;11.95;;;10.80;99.90;;;;;;5035228;28;20923;-78
2023/04/15 03:36:02;;;;;;;14.80;11.95;;;10.80;99.90;;;;;;5037836;28;20235;-77
2023/04/15 03:38:51;;;;;;;13.35;10.95;;;10.70;99.90;;;;;;5031968;28;20312;-75
2023/04/15 03:41:42;;;;;;;13.73;11.32;;;10.80;99.90;;;;;;5035432;28;20259;-73
2023/04/15 03:44:31;;;;;;;14.18;11.48;;;10.70;99.90;;;;;;5020176;28;20757;-73
2023/04/15 03:47:20;;;;;;;14.18;11.75;;;10.90;99.90;;;;;;5033307;28;20232;-73
2023/04/15 03:50:10;;;;;;;12.90;11.50;;;10.90;99.90;;;;;;5040518;28;20332;-75
2023/04/15 03:52:59;;;;;;;16.10;11.90;;;10.90;99.90;;;;;;5043697;28;20225;-76
2023/04/15 03:55:48;;;;;;;17.00;11.85;;;10.90;99.90;;;;;;5040129;28;20233;-75
2023/04/15 03:58:38;;;;;;;16.80;11.98;;;10.70;99.90;;;;;;5046694;28;20255;-77
2023/04/15 04:01:27;;;;;;;12.20;10.65;;;10.80;99.90;;;;;;5043256;28;20248;-75
2023/04/15 04:04:16;;;;;;;17.15;11.45;;;10.70;99.90;;;;;;5028546;28;20217;-75
2023/04/15 04:07:05;;;;;;;16.85;11.65;;;10.90;99.90;;;;;;5035662;28;20225;-76
2023/04/15 04:09:54;;;;;;;15.23;12.05;;;10.70;99.90;;;;;;5037799;28;20230;-76
2023/04/15 04:12:43;;;;;;;15.07;12.27;;;10.70;99.90;;;;;;5043276;28;20225;-76
2023/04/15 04:15:34;;;;;;;17.08;11.88;;;10.70;99.90;;;;;;5046266;28;20697;-75
2023/04/15 04:18:23;;;;;;;13.48;11.65;;;10.80;99.90;;;;;;5056545;28;20220;-79
2023/04/15 04:21:11;;;;;;;14.52;12.00;;;10.80;99.90;;;;;;5047175;28;20784;-77
2023/04/15 04:24:00;;;;;;;14.13;11.98;;;10.80;99.90;;;;;;5039605;28;20218;-80
2023/04/15 04:26:49;;;;;;;13.18;11.52;;;10.60;99.90;;;;;;5027170;28;20221;-81
2023/04/15 04:29:38;;;;;;;17.77;11.98;;;10.70;99.90;;;;;;5027914;28;20229;-81
2023/04/15 04:32:29;;;;;;;12.73;11.32;;;10.70;99.90;;;;;;5028058;28;20255;-81
2023/04/15 04:35:18;;;;;;;15.90;11.38;;;10.70;99.90;;;;;;5024125;28;20828;-78
2023/04/15 04:38:06;;;;;;;14.60;12.30;;;10.60;99.90;;;;;;5022065;28;20236;-76
2023/04/15 04:40:55;;;;;;;14.40;12.43;;;10.60;99.90;;;;;;5016779;28;20316;-76
2023/04/15 04:43:44;;;;;;;13.82;11.90;;;10.60;99.90;;;;;;5036005;28;20886;-77
2023/04/15 04:46:33;;;;;;;14.35;11.93;;;10.70;99.90;;;;;;5019037;28;20761;-77
2023/04/15 04:49:23;;;;;;;13.57;12.00;;;10.70;99.90;;;;;;5022625;28;20228;-76
2023/04/15 04:52:12;;;;;;;14.20;12.68;;;10.70;99.90;;;;;;5021514;28;20650;-77
2023/04/15 04:55:01;;;;;;;16.63;13.10;;;10.70;99.90;;;;;;5022125;28;20738;-77
2023/04/15 04:57:50;;;;;;;14.13;12.27;;;10.60;99.90;;;;;;5020576;28;20234;-77
2023/04/15 05:00:40;;;;;;;14.27;11.98;;;10.60;99.90;;;;;;5020655;28;20233;-78
2023/04/15 05:03:31;;;;;;;14.90;12.38;;;10.40;99.90;;;;;;5022205;28;20230;-77
2023/04/15 05:06:22;;;;;;;15.93;11.98;;;10.30;99.90;;;;;;5021540;28;20237;-79
2023/04/15 05:09:11;;;;;;;14.73;12.05;;;10.50;99.90;;;;;;5019016;28;20218;-79
2023/04/15 05:12:00;;;;;;;14.32;11.70;;;10.40;99.90;;;;;;5019882;28;20633;-79
2023/04/15 05:14:49;;;;;;;15.43;12.55;;;10.60;99.90;;;;;;5019264;28;20696;-79
2023/04/15 05:17:38;;;;;;;15.80;11.32;;;10.50;99.90;;;;;;5019726;28;20249;-80
2023/04/15 05:20:26;;;;;;;17.20;11.90;;;10.50;99.90;;;;;;5036497;28;20233;-81
2023/04/15 05:23:17;;;;;;;16.20;12.40;;;10.50;99.90;;;;;;5040904;28;20572;-79
2023/04/15 05:26:06;;;;;;;16.20;12.52;;;10.50;99.90;;;;;;5043290;28;20241;-81
2023/04/15 05:28:55;;;;;;;16.00;12.15;;;10.40;99.90;;;;;;5035865;28;20223;-84
2023/04/15 05:31:44;;;;;;;16.65;12.18;;;10.50;99.90;;;;;;5037820;28;20692;-81
2023/04/15 05:34:33;;;;;;;13.07;11.55;;;10.60;99.90;;;;;;5020283;28;20315;-82
2023/04/15 05:37:22;;;;;;;14.48;11.45;;;10.70;99.90;;;;;;5036934;28;20225;-79
2023/04/15 05:40:13;;;;;;;13.75;11.75;;;10.80;99.90;;;;;;5037903;28;20267;-80
2023/04/15 05:43:02;;;;;;;13.20;11.05;;;10.80;99.90;;;;;;5042689;28;20592;-80
2023/04/15 05:45:51;;;;;;;13.63;11.82;;;10.50;99.90;;;;;;5009937;28;20240;-80
2023/04/15 05:48:39;;;;;;;15.63;11.32;;;10.60;99.90;;;;;;5017913;28;20232;-77
2023/04/15 05:51:31;;;;;;;12.00;10.57;;;10.50;99.90;;;;;;5019092;28;20245;-78
2023/04/15 05:54:22;;;;;;;12.75;10.02;;;10.50;99.90;;;;;;5032779;28;20220;-78
2023/04/15 05:57:12;;;;;;;12.00;10.63;;;10.50;99.90;;;;;;5047432;28;20217;-76
2023/04/15 06:00:01;;;;;;;12.60;11.15;;;10.40;99.90;;;;;;5012728;28;20271;-74
2023/04/15 06:02:57;;;;;;;12.95;10.82;;;10.50;99.90;;;;;;5019292;28;20233;-76
2023/04/15 06:05:46;;;;;;;13.05;10.82;;;10.40;99.90;;;;;;5030714;28;20245;-76
2023/04/15 06:08:36;;;;;;;13.43;10.77;;;10.30;99.90;;;;;;5021282;28;20320;-76
2023/04/15 06:11:25;;;;;;;12.57;10.60;;;10.20;99.90;;;;;;5021042;28;20226;-81
2023/04/15 06:14:15;;;;;;;13.07;10.45;;;10.30;99.90;;;;;;5032841;28;20227;-77
2023/04/15 06:17:04;;;;;;;12.98;11.38;;;10.40;99.90;;;;;;5021916;28;20236;-85
2023/04/15 06:19:54;;;;;;;13.05;10.57;;;10.40;99.90;;;;;;5013546;28;20230;-81
2023/04/15 06:22:43;;;;;;;12.60;10.70;;;10.50;99.90;;;;;;5027641;28;20248;-84
2023/04/15 06:25:32;;;;;;;13.55;10.93;;;10.40;99.90;;;;;;5023617;28;20600;-82
2023/04/15 06:28:21;;;;;;;11.23;10.02;;;10.40;99.90;;;;;;5032642;28;20237;-72
2023/04/15 06:31:11;;;;;;;13.18;9.63;;;10.50;99.90;;;;;;5019504;28;20233;-78
2023/04/15 06:34:02;;;;;;;12.95;10.05;;;10.50;99.90;;;;;;5016663;28;20344;-72
2023/04/15 06:36:51;;;;;;;10.93;9.77;;;10.50;99.90;;;;;;5022712;28;20355;-73
2023/04/15 06:39:41;;;;;;;11.30;10.10;;;10.40;99.90;;;;;;5015892;28;20819;-73
2023/04/15 06:42:31;;;;;;;12.90;9.65;;;10.40;99.90;;;;;;5017459;28;20232;-74
2023/04/15 06:45:19;;;;;;;10.48;9.27;;;10.50;99.90;;;;;;5023818;28;20665;-74
2023/04/15 06:48:10;;;;;;;11.02;9.43;;;10.50;99.90;;;;;;5009200;28;20249;-73
2023/04/15 06:50:58;;;;;;;10.98;9.43;;;10.40;99.90;;;;;;5021551;28;20612;-75
2023/04/15 06:53:47;;;;;;;12.55;9.63;;;10.30;99.90;;;;;;5019934;28;20330;-76
2023/04/15 06:56:36;;;;;;;11.65;10.45;;;10.40;99.90;;;;;;5021037;28;20520;-79
2023/04/15 06:59:26;;;;;;;13.27;10.05;;;10.60;99.90;;;;;;5014850;28;20236;-79
2023/04/15 07:02:15;;;;;;;12.90;10.10;;;10.40;99.90;;;;;;5018275;28;20228;-77
2023/04/15 07:05:08;;;;;;;12.15;9.48;;;10.40;99.90;;;;;;5017029;28;20316;-77
2023/04/15 07:07:57;;;;;;;10.60;9.50;;;10.30;99.90;;;;;;5039246;28;20562;-78
2023/04/15 07:10:47;;;;;;;11.82;9.05;;;10.50;99.90;;;;;;5028262;28;20863;-79
2023/04/15 07:13:36;;;;;;;10.23;8.85;;;10.40;99.90;;;;;;5029175;28;20968;-80
2023/04/15 07:16:24;;;;;;;10.27;9.00;;;10.50;99.90;;;;;;5020707;28;20266;-76
2023/04/15 07:19:16;;;;;;;10.25;8.18;;;10.40;99.90;;;;;;5012979;28;20236;-74
2023/04/15 07:22:07;;;;;;;10.57;8.40;;;10.40;99.90;;;;;;5051092;28;20358;-71
2023/04/15 07:24:55;;;;;;;9.50;8.52;;;10.30;99.90;;;;;;5019187;28;20758;-73
2023/04/15 07:27:44;;;;;;;9.68;8.20;;;10.50;99.90;;;;;;5037610;28;20647;-71
2023/04/15 07:30:37;;;;;;;11.90;8.50;;;10.30;99.90;;;;;;5036920;28;20218;-72
2023/04/15 07:33:26;;;;;;;10.98;8.75;;;10.30;99.90;;;;;;5037115;28;20220;-71
2023/04/15 07:36:15;;;;;;;9.30;8.10;;;10.30;99.90;;;;;;5038664;28;20229;-73
2023/04/15 07:39:05;;;;;;;8.45;7.45;;;10.30;99.90;;;;;;5023778;28;20229;-73
2023/04/15 07:41:54;;;;;;;9.65;8.30;;;10.40;99.90;;;;;;5027524;28;20225;-74
2023/04/15 07:44:45;;;;;;;11.68;8.55;;;10.30;99.90;;;;;;5036822;28;20248;-74
2023/04/15 07:47:34;;;;;;;10.20;7.68;;;10.40;99.90;;;;;;5030138;28;20241;-72
2023/04/15 07:50:24;;;;;;;10.32;8.63;;;10.50;99.90;;;;;;5018578;28;20222;-71
2023/04/15 07:53:13;;;;;;;9.70;7.70;;;10.60;99.90;;;;;;5019171;28;20225;-73
2023/04/15 07:56:04;;;;;;;8.75;7.78;;;10.60;99.90;;;;;;5025985;28;20237;-73
2023/04/15 07:58:53;;;;;;;9.75;7.78;;;10.40;99.90;;;;;;5024358;28;20229;-73
2023/04/15 08:01:42;;;;;;;7.88;6.72;;;10.50;99.90;;;;;;5031909;28;20307;-73
2023/04/15 08:04:32;;;;;;;9.57;7.45;;;10.40;99.90;;;;;;5020595;28;20226;-73
2023/04/15 08:07:21;;;;;;;9.48;7.55;;;10.50;99.90;;;;;;5026162;28;20567;-72
2023/04/15 08:10:11;;;;;;;7.97;7.18;;;10.60;99.90;;;;;;5023501;28;20265;-73
2023/04/15 08:13:01;;;;;;;7.90;7.10;;;10.50;99.90;;;;;;5047440;28;20367;-72
2023/04/15 08:16:16;;;;;;;7.65;6.72;;;10.40;99.90;;;;;;5044688;28;20244;-72
2023/04/15 08:19:05;;;;;;;7.75;6.93;;;10.40;99.90;;;;;;5016093;28;20280;-73
2023/04/15 08:21:54;;;;;;;10.85;6.80;;;10.50;99.90;;;;;;5043282;28;20241;-72
2023/04/15 08:24:43;;;;;;;9.50;6.90;;;10.70;99.90;;;;;;5028117;28;20366;-73
2023/04/15 08:27:32;;;;;;;7.82;6.80;;;10.50;99.90;;;;;;5037638;28;20221;-72
2023/04/15 08:30:23;;;;;;;7.40;6.55;;;10.40;99.90;;;;;;5031482;28;20920;-72
2023/04/15 08:33:12;;;;;;;6.93;6.00;;;10.60;99.90;;;;;;5043810;28;20608;-74
2023/04/15 08:36:01;;;;;;;7.00;6.13;;;10.60;99.90;;;;;;5034049;28;20300;-72
2023/04/15 08:38:50;;;;;;;6.53;5.60;;;10.80;99.90;;;;;;5036399;28;20225;-73
2023/04/15 08:41:46;;;;;;;6.25;5.65;;;10.80;99.90;;;;;;5030581;28;20638;-72
2023/04/15 08:44:35;;;;;;;8.45;6.07;;;10.60;99.90;;;;;;5027972;28;20225;-72
2023/04/15 08:47:29;;;;;;;6.15;5.55;;;10.70;99.90;;;;;;5033201;28;20237;-72
2023/04/15 08:50:19;;;;;;;9.45;6.07;;;10.70;99.90;;;;;;5041679;28;20239;-72
2023/04/15 08:53:09;;;;;;;7.03;5.53;;;10.80;99.90;;;;;;5044531;28;20229;-73
2023/04/15 08:56:03;;;;;;;8.90;7.28;;;10.80;99.90;;;;;;5039454;28;20315;-73
2023/04/15 08:58:53;;;;;;;5.93;5.07;;;10.80;99.90;;;;;;5037601;28;20723;-73
2023/04/15 09:01:42;;;;;;;5.18;4.68;;;10.90;99.90;;;;;;5040540;28;20240;-74
2023/04/15 09:04:33;;;;;;;5.43;4.78;;;10.90;99.90;;;;;;5024283;28;20237;-74
2023/04/15 09:07:22;;;;;;;5.63;4.80;;;10.90;99.90;;;;;;5036219;28;20221;-74
2023/04/15 09:10:12;;;;;;;4.90;4.25;;;10.90;99.90;;;;;;5043270;28;20822;-74
2023/04/15 09:13:02;;;;;;;5.35;4.45;;;11.10;99.90;;;;;;5030867;28;20312;-73
2023/04/15 09:15:51;;;;;;;4.80;4.30;;;11.00;99.90;;;;;;5027963;28;20596;-74
2023/04/15 09:18:39;;;;;;;4.97;4.25;;;11.00;99.90;;;;;;5034700;28;20704;-74
2023/04/15 09:21:32;;;;;;;5.00;4.40;;;10.90;99.90;;;;;;5037497;28;20808;-73
2023/04/15 09:24:21;;;;;;;6.25;4.68;;;11.00;99.90;;;;;;5024565;28;20320;-74
2023/04/15 09:27:11;;;;;;;5.35;4.72;;;10.90;99.90;;;;;;5033193;28;20237;-74
2023/04/15 09:29:59;;;;;;;5.85;4.45;;;10.90;99.90;;;;;;5037848;28;20225;-74
2023/04/15 09:32:51;;;;;;;4.95;4.45;;;10.90;99.90;;;;;;5032453;28;20643;-72
2023/04/15 09:35:40;;;;;;;5.47;4.10;;;11.10;99.90;;;;;;5018998;28;20233;-72
2023/04/15 09:38:31;;;;;;;4.63;4.22;;;11.00;99.90;;;;;;5030588;28;20209;-72
2023/04/15 09:41:20;;;;;;;5.35;4.40;;;11.00;99.90;;;;;;5022732;28;20769;-72
2023/04/15 09:44:22;;;;;;;4.72;3.70;;;10.90;99.90;;;;;;5037622;28;21016;-73
2023/04/15 09:47:27;;;;;;;5.90;4.32;;;11.00;99.90;;;;;;5039764;28;20720;-72
2023/04/15 09:50:17;;;;;;;4.75;3.80;;;11.10;99.90;;;;;;5032041;28;20240;-73
2023/04/15 09:53:06;;;;;;;4.57;3.80;;;10.90;99.90;;;;;;5043616;28;20221;-73
2023/04/15 09:55:57;;;;;;;4.60;4.10;;;11.10;99.90;;;;;;5033470;28;21060;-74
2023/04/15 09:58:56;;;;;;;6.85;4.03;;;11.10;99.90;;;;;;5041256;28;20322;-72
2023/04/15 10:01:45;;;;;;;4.25;3.70;;;11.20;99.90;;;;;;5036510;28;20221;-72
2023/04/15 10:04:40;;;;;;;4.40;3.78;;;11.10;99.90;;;;;;5012859;28;20268;-72
2023/04/15 10:07:29;;;;;;;7.35;3.22;;;11.10;99.90;;;;;;5035291;28;20276;-72
2023/04/15 10:10:18;;;;;;;4.18;3.78;;;11.10;99.90;;;;;;5025941;28;20229;-79
2023/04/15 10:13:10;;;;;;;6.63;4.35;;;11.20;99.90;;;;;;5040648;28;20702;-76
2023/04/15 10:16:01;;;;;;;4.97;3.33;;;11.30;99.90;;;;;;5016941;28;20228;-82
2023/04/15 10:18:55;;;;;;;4.03;3.63;;;11.30;99.90;;;;;;5020827;28;20309;-79
2023/04/15 10:21:45;;;;;;;4.03;3.28;;;11.40;99.90;;;;;;5023621;28;20228;-82
2023/04/15 10:24:35;;;;;;;3.65;3.30;;;11.30;99.90;;;;;;5036645;28;20345;-81
2023/04/15 10:27:24;;;;;;;3.72;3.38;;;11.00;99.90;;;;;;5037555;28;20259;-80
2023/04/15 10:30:16;;;;;;;4.18;3.60;;;11.10;99.90;;;;;;5035421;28;20229;-81
2023/04/15 10:33:06;;;;;;;3.47;3.17;;;11.20;99.90;;;;;;5039545;28;20814;-81
2023/04/15 10:35:56;;;;;;;3.70;3.30;;;11.20;99.90;;;;;;5047166;28;20217;-80
2023/04/15 10:38:46;;;;;;;3.95;3.55;;;11.20;99.90;;;;;;5035477;28;20367;-80
2023/04/15 10:41:37;;;;;;;4.43;3.42;;;11.20;99.90;;;;;;5036696;28;20240;-78
2023/04/15 10:44:26;;;;;;;3.50;3.20;;;11.20;99.90;;;;;;5023204;28;20228;-81
2023/04/15 10:47:18;;;;;;;3.65;3.22;;;11.00;99.90;;;;;;5025549;28;20216;-82
2023/04/15 10:50:08;;;;;;;6.28;3.60;;;11.10;99.90;;;;;;5020151;28;20222;-79
2023/04/15 10:52:57;;;;;;;3.80;3.50;;;11.10;99.90;;;;;;5037053;28;20263;-78
2023/04/15 10:55:46;;;;;;;7.47;4.38;;;11.20;99.90;;;;;;5040845;28;20228;-74
2023/04/15 10:58:41;;;;;;;5.38;3.97;;;11.30;99.90;;;;;;5033848;28;20239;-79
2023/04/15 11:01:53;;;;;;;4.97;3.60;;;11.40;99.90;;;;;;5039949;28;20335;-76
2023/04/15 11:04:54;;;;;;;5.90;4.00;;;11.30;99.90;;;;;;5021583;28;20294;-77
2023/04/15 11:07:55;;;;;;;4.93;3.90;;;11.30;99.90;;;;;;5034715;28;20591;-75
2023/04/15 11:10:54;;;;;;;4.20;3.75;;;11.30;99.90;;;;;;5015123;28;20843;-77
2023/04/15 11:13:49;;;;;;;4.05;3.65;;;11.40;99.90;;;;;;5023074;28;20219;-77
2023/04/15 11:16:43;;;;;;;6.30;4.47;;;11.30;99.90;;;;;;5012757;28;20217;-78
2023/04/15 11:19:39;;;;;;;5.82;3.35;;;11.50;99.90;;;;;;5020432;28;20320;-78
2023/04/15 11:22:29;;;;;;;4.45;3.40;;;11.50;99.90;;;;;;5049648;28;20400;-77
2023/04/15 11:25:24;;;;;;;4.47;3.10;;;11.30;99.90;;;;;;5034108;28;20233;-78
2023/04/15 11:28:13;;;;;;;4.05;2.90;;;11.30;99.90;;;;;;5035814;28;20237;-76
2023/04/15 11:31:10;;;;;;;5.22;3.40;;;11.40;99.90;;;;;;5037692;28;20269;-76
2023/04/15 11:34:01;;;;;;;3.95;3.30;;;11.40;99.90;;;;;;5042163;28;20229;-76
2023/04/15 11:36:50;;;;;;;3.90;3.20;;;11.50;99.90;;;;;;5038952;28;20229;-77
2023/04/15 11:39:41;;;;;;;4.45;3.50;;;11.50;99.90;;;;;;5036374;28;20261;-79
2023/04/15 11:42:30;;;;;;;5.22;3.85;;;11.60;99.90;;;;;;5037509;28;20229;-78
2023/04/15 11:45:37;;;;;;;4.13;3.70;;;11.70;99.90;;;;;;5034036;28;20962;-77
2023/04/15 11:48:28;;;;;;;4.30;3.58;;;11.80;99.90;;;;;;5013141;28;20225;-73
2023/04/15 11:51:19;;;;;;;5.13;3.90;;;11.70;99.90;;;;;;5034955;28;20221;-73
2023/04/15 11:54:08;;;;;;;4.68;4.28;;;11.90;99.90;;;;;;5036516;28;20225;-74
2023/04/15 11:57:00;;;;;;;5.40;4.28;;;12.10;99.90;;;;;;5022548;28;20296;-71
2023/04/15 11:59:49;;;;;;;6.75;4.47;;;12.20;99.90;;;;;;5031780;28;20229;-73
2023/04/15 12:02:39;;;;;;;4.85;4.35;;;12.10;99.90;;;;;;5017422;28;20226;-73
2023/04/15 12:05:29;;;;;;;5.30;4.80;;;12.30;99.90;;;;;;5021172;28;20252;-79
2023/04/15 12:08:18;;;;;;;6.65;4.80;;;12.30;99.90;;;;;;5035028;28;20233;-73
2023/04/15 12:11:07;;;;;;;5.95;4.70;;;12.20;99.90;;;;;;5040675;28;20893;-76
2023/04/15 12:13:59;;;;;;;4.70;4.10;;;12.20;99.90;;;;;;5046368;28;20692;-77
2023/04/15 12:16:49;;;;;;;5.55;4.32;;;12.00;99.90;;;;;;5025425;28;20271;-72
2023/04/15 12:19:41;;;;;;;6.13;4.38;;;12.00;99.90;;;;;;5032812;28;20228;-72
2023/04/15 12:22:30;;;;;;;4.30;3.78;;;12.00;99.90;;;;;;5032531;28;20288;-72
2023/04/15 12:25:19;;;;;;;6.40;4.00;;;11.90;99.90;;;;;;5042660;28;20228;-71
2023/04/15 12:28:11;;;;;;;4.80;4.28;;;11.90;99.90;;;;;;5037239;28;20221;-72
2023/04/15 12:31:07;;;;;;;5.50;4.60;;;12.10;99.90;;;;;;5019516;28;20306;-73
2023/04/15 12:33:57;;;;;;;4.88;4.38;;;12.20;99.90;;;;;;5032579;28;20229;-73
2023/04/15 12:36:45;;;;;;;6.50;4.63;;;12.20;99.90;;;;;;5033480;28;20221;-73
2023/04/15 12:39:36;;;;;;;5.95;4.90;;;12.20;99.90;;;;;;5039553;28;20288;-73
2023/04/15 12:42:25;;;;;;;5.80;4.95;;;12.20;99.90;;;;;;5041093;28;20217;-74
2023/04/15 12:45:14;;;;;;;7.35;4.97;;;12.20;99.90;;;;;;5028627;28;20236;-74
2023/04/15 12:48:05;;;;;;;7.30;5.35;;;12.40;99.90;;;;;;5011105;28;20541;-74
2023/04/15 12:50:53;;;;;;;6.45;5.50;;;12.60;99.90;;;;;;5032980;28;20286;-75
2023/04/15 12:53:46;;;;;;;5.93;4.95;;;12.80;99.90;;;;;;5021595;28;20412;-75
2023/04/15 12:56:35;;;;;;;4.07;3.40;;;12.90;99.90;;;;;;5028572;28;20480;-82
2023/04/15 12:59:24;;;;;;;4.95;3.42;;;12.90;99.90;;;;;;5039105;28;20693;-80
2023/04/15 13:02:13;;;;;;;6.20;3.47;;;12.90;99.90;;;;;;5021903;28;20232;-78
2023/04/15 13:05:05;;;;;;;4.15;3.60;;;12.90;99.90;;;;;;5018195;28;20230;-79
2023/04/15 13:07:55;;;;;;;4.80;3.97;;;12.90;99.90;;;;;;5032087;28;20478;-78
2023/04/15 13:10:44;;;;;;;5.75;3.70;;;12.80;99.90;;;;;;5033293;28;20308;-79
2023/04/15 13:13:33;;;;;;;6.75;4.10;;;12.70;99.90;;;;;;5044330;28;20300;-79
2023/04/15 13:16:22;;;;;;;5.25;3.45;;;12.90;99.90;;;;;;5042104;28;20639;-79
2023/04/15 13:19:11;;;;;;;4.75;3.30;;;13.30;99.90;;;;;;5039463;28;20225;-79
2023/04/15 13:22:02;;;;;;;3.60;2.40;;;13.60;99.90;;;;;;5052769;28;20231;-79
2023/04/15 13:24:51;;;;;;;5.60;3.28;;;13.10;99.90;;;;;;5040888;28;20335;-78
2023/04/15 13:27:40;;;;;;;4.22;3.15;;;12.70;99.90;;;;;;5029235;28;22584;-79
2023/04/15 13:30:30;;;;;;;5.28;3.72;;;12.70;99.90;;;;;;5037855;28;20222;-79
2023/04/15 13:33:18;;;;;;;4.05;3.53;;;12.60;99.90;;;;;;5021561;28;20225;-79
2023/04/15 13:36:08;;;;;;;4.18;2.85;;;12.60;99.90;;;;;;5037494;28;20228;-79
2023/04/15 13:38:58;;;;;;;4.45;3.15;;;12.40;99.90;;;;;;5027312;28;20217;-78
2023/04/15 13:41:48;;;;;;;7.88;3.05;;;12.50;99.90;;;;;;5032158;28;20387;-78
2023/04/15 13:44:37;;;;;;;4.53;2.88;;;12.40;99.90;;;;;;5034930;28;20229;-79
2023/04/15 13:47:26;;;;;;;5.50;3.05;;;12.30;99.90;;;;;;5034760;28;20274;-79
2023/04/15 13:50:15;;;;;;;3.40;2.67;;;12.40;99.90;;;;;;5036503;28;20593;-80
2023/04/15 13:53:04;;;;;;;4.10;2.35;;;12.40;99.90;;;;;;5003087;28;20696;-80
2023/04/15 13:55:54;;;;;;;2.63;2.30;;;12.40;99.90;;;;;;5012438;28;20253;-80
2023/04/15 13:58:46;;;;;;;2.45;2.17;;;12.40;99.90;;;;;;5019861;28;20272;-80
2023/04/15 14:01:35;;;;;;;4.00;2.42;;;12.50;99.90;;;;;;5026896;28;20399;-80
2023/04/15 14:04:24;;;;;;;2.95;2.50;;;12.70;99.90;;;;;;5038089;28;20232;-81
2023/04/15 14:07:14;;;;;;;3.25;2.55;;;12.50;99.90;;;;;;5043210;28;20730;-80
2023/04/15 14:10:03;;;;;;;2.92;2.47;;;12.30;99.90;;;;;;5023164;28;20234;-81
2023/04/15 14:12:53;;;;;;;3.88;2.78;;;12.30;99.90;;;;;;5028009;28;20321;-81
2023/04/15 14:15:43;;;;;;;3.53;2.60;;;12.60;99.90;;;;;;5032213;28;20283;-81
2023/04/15 14:18:33;;;;;;;2.38;2.10;;;12.50;99.90;;;;;;5040391;28;20315;-81
2023/04/15 14:21:22;;;;;;;3.25;2.15;;;12.50;99.90;;;;;;5039221;28;20234;-80
2023/04/15 14:24:11;;;;;;;3.28;2.63;;;12.50;99.90;;;;;;5027111;28;20272;-81
2023/04/15 14:27:01;;;;;;;3.47;2.55;;;12.50;99.90;;;;;;4995170;28;20548;-82
2023/04/15 14:29:52;;;;;;;2.38;2.17;;;12.40;99.90;;;;;;5040397;28;20216;-83
2023/04/15 14:32:43;;;;;;;2.38;2.00;;;12.30;99.90;;;;;;5019105;28;20236;-83
2023/04/15 14:35:33;;;;;;;3.88;2.67;;;12.40;99.90;;;;;;5034700;28;20233;-83
2023/04/15 14:38:21;;;;;;;2.38;1.92;;;12.40;99.90;;;;;;5025224;28;20223;-81
2023/04/15 14:41:11;;;;;;;2.88;2.05;;;12.50;99.90;;;;;;5043488;28;20232;-82